This is the latest recevied weather packets stored in our database for station/object N3WMC. If no packets are shown the sender has not sent any weather packets the latest 10 day(s).
| Time | Temp. | Humidity | Pressure | Rain* | Wind** | Luminosity | Snow |
|---|---|---|---|---|---|---|---|
| 1777942844 | 20° C | 55% | 1007.9 hPa | 0 mm | - | 0 W/m² | - |
| 1777942540 | 19.44° C | 56% | 1008 hPa | 0 mm | - | 0 W/m² | - |
| 1777942238 | 19.44° C | 56% | 1007.9 hPa | 0 mm | - | 0 W/m² | - |
| 1777941935 | 20° C | 56% | 1007.8 hPa | 0 mm | - | 0 W/m² | - |
| 1777941631 | 20° C | 57% | 1007.7 hPa | 0 mm | - | 0 W/m² | - |
| 1777941329 | 20° C | 56% | 1007.7 hPa | 0 mm | - | 0 W/m² | - |
| 1777941026 | 20° C | 57% | 1007.7 hPa | 0 mm | - | 0 W/m² | - |
| 1777940721 | 20° C | 57% | 1007.7 hPa | 0 mm | - | 1 W/m² | - |
| 1777940420 | 20° C | 57% | 1007.6 hPa | 0 mm | - | 2 W/m² | - |
| 1777940117 | 20° C | 58% | 1007.5 hPa | 0 mm | - | 3 W/m² | - |
| 1777939814 | 20° C | 58% | 1007.6 hPa | 0 mm | - | 5 W/m² | - |
| 1777939512 | 20° C | 57% | 1007.6 hPa | 0 mm | - | 7 W/m² | - |
| 1777939209 | 20° C | 58% | 1007.5 hPa | 0 mm | - | 11 W/m² | - |
| 1777938906 | 20° C | 57% | 1007.6 hPa | 0 mm | - | 15 W/m² | - |
| 1777938602 | 20.56° C | 56% | 1007.7 hPa | 0 mm | - | 22 W/m² | - |
| 1777938299 | 20.56° C | 55% | 1007.7 hPa | 0 mm | - | 34 W/m² | - |
| 1777937996 | 20.56° C | 54% | 1007.8 hPa | 0 mm | - | 29 W/m² | - |
| 1777937691 | 20.56° C | 55% | 1007.8 hPa | 0 mm | - | 21 W/m² | - |
| 1777937389 | 20.56° C | 55% | 1008 hPa | 0 mm | - | 15 W/m² | - |
| 1777937086 | 20.56° C | 54% | 1007.9 hPa | 0 mm | - | 18 W/m² | - |
| 1777936783 | 21.11° C | 52% | 1008.1 hPa | 0 mm | - | 24 W/m² | - |
| 1777936479 | 21.67° C | 50% | 1007.7 hPa | 0 mm | - | 42 W/m² | - |
| 1777936175 | 21.67° C | 50% | 1007.8 hPa | 0 mm | - | 60 W/m² | - |
| 1777935872 | 21.11° C | 50% | 1008 hPa | 0 mm | - | 28 W/m² | - |
| 1777935572 | 21.11° C | 50% | 1007.8 hPa | 0 mm | - | 38 W/m² | - |
* Rain latest hour (hover to see other rain measurements)
** Current wind speed in m/s (hover to see current wind gust speed)